sensor_id;sensor_type;location;lat;lon;timestamp;pressure;altitude;pressure_sealevel;temperature;humidity
16255;BME280;8235;52.198;9.904;2023-03-01T00:00:53;102356.41;;;-2.99;79.72
16255;BME280;8235;52.198;9.904;2023-03-01T00:03:20;102362.47;;;-3.00;79.61
16255;BME280;8235;52.198;9.904;2023-03-01T00:05:47;102372.84;;;-3.01;80.32
16255;BME280;8235;52.198;9.904;2023-03-01T00:08:15;102375.44;;;-3.03;80.11
16255;BME280;8235;52.198;9.904;2023-03-01T00:10:41;102363.25;;;-3.04;80.34
16255;BME280;8235;52.198;9.904;2023-03-01T00:13:07;102364.97;;;-3.06;80.26
16255;BME280;8235;52.198;9.904;2023-03-01T00:15:38;102373.56;;;-3.10;80.27
16255;BME280;8235;52.198;9.904;2023-03-01T00:18:04;102375.22;;;-3.13;79.71
16255;BME280;8235;52.198;9.904;2023-03-01T00:20:31;102371.59;;;-3.20;79.80
16255;BME280;8235;52.198;9.904;2023-03-01T00:22:57;102378.47;;;-3.25;79.99
16255;BME280;8235;52.198;9.904;2023-03-01T00:25:25;102377.53;;;-3.29;80.05
16255;BME280;8235;52.198;9.904;2023-03-01T00:27:51;102377.47;;;-3.32;80.10
16255;BME280;8235;52.198;9.904;2023-03-01T00:30:18;102376.53;;;-3.34;80.37
16255;BME280;8235;52.198;9.904;2023-03-01T00:32:44;102368.69;;;-3.35;80.51
16255;BME280;8235;52.198;9.904;2023-03-01T00:35:11;102373.88;;;-3.37;80.50
16255;BME280;8235;52.198;9.904;2023-03-01T00:37:38;102372.97;;;-3.37;80.82
16255;BME280;8235;52.198;9.904;2023-03-01T00:40:08;102368.63;;;-3.38;80.66
16255;BME280;8235;52.198;9.904;2023-03-01T00:42:36;102367.75;;;-3.40;80.94
16255;BME280;8235;52.198;9.904;2023-03-01T00:45:04;102359.00;;;-3.42;80.80
16255;BME280;8235;52.198;9.904;2023-03-01T00:47:30;102362.47;;;-3.43;80.81
16255;BME280;8235;52.198;9.904;2023-03-01T00:49:57;102354.56;;;-3.46;81.08
16255;BME280;8235;52.198;9.904;2023-03-01T00:52:23;102352.78;;;-3.49;81.07
16255;BME280;8235;52.198;9.904;2023-03-01T00:54:52;102350.97;;;-3.52;81.05
16255;BME280;8235;52.198;9.904;2023-03-01T00:57:19;102354.44;;;-3.53;80.91
16255;BME280;8235;52.198;9.904;2023-03-01T00:59:47;102355.22;;;-3.57;80.97
16255;BME280;8235;52.198;9.904;2023-03-01T01:02:13;102366.47;;;-3.59;81.23
16255;BME280;8235;52.198;9.904;2023-03-01T01:04:40;102355.09;;;-3.63;81.13
16255;BME280;8235;52.198;9.904;2023-03-01T01:07:06;102357.63;;;-3.66;81.01
16255;BME280;8235;52.198;9.904;2023-03-01T01:09:33;102361.00;;;-3.70;81.08
16255;BME280;8235;52.198;9.904;2023-03-01T01:11:59;102360.94;;;-3.73;80.92
16255;BME280;8235;52.198;9.904;2023-03-01T01:14:26;102358.25;;;-3.76;80.96
16255;BME280;8235;52.198;9.904;2023-03-01T01:16:54;102359.94;;;-3.79;80.85
16255;BME280;8235;52.198;9.904;2023-03-01T01:19:20;102359.00;;;-3.81;81.15
16255;BME280;8235;52.198;9.904;2023-03-01T01:21:47;102358.09;;;-3.83;81.25
16255;BME280;8235;52.198;9.904;2023-03-01T01:24:14;102365.03;;;-3.84;81.50
16255;BME280;8235;52.198;9.904;2023-03-01T01:26:41;102358.03;;;-3.87;81.80
16255;BME280;8235;52.198;9.904;2023-03-01T01:29:09;102352.78;;;-3.88;81.55
16255;BME280;8235;52.198;9.904;2023-03-01T01:31:37;102344.94;;;-3.90;81.58
16255;BME280;8235;52.198;9.904;2023-03-01T01:34:09;102337.97;;;-3.91;81.63
16255;BME280;8235;52.198;9.904;2023-03-01T01:36:38;102339.66;;;-3.93;81.86
16255;BME280;8235;52.198;9.904;2023-03-01T01:39:05;102343.09;;;-3.94;81.88
16255;BME280;8235;52.198;9.904;2023-03-01T01:41:32;102340.50;;;-3.95;81.90
16255;BME280;8235;52.198;9.904;2023-03-01T01:44:14;102331.75;;;-3.97;82.05
16255;BME280;8235;52.198;9.904;2023-03-01T01:46:43;102332.56;;;-4.00;82.10
16255;BME280;8235;52.198;9.904;2023-03-01T01:49:23;102335.97;;;-4.02;81.92
16255;BME280;8235;52.198;9.904;2023-03-01T01:51:57;102335.06;;;-4.04;81.99
16255;BME280;8235;52.198;9.904;2023-03-01T01:54:28;102333.22;;;-4.08;82.10
16255;BME280;8235;52.198;9.904;2023-03-01T01:56:59;102332.31;;;-4.10;82.06
16255;BME280;8235;52.198;9.904;2023-03-01T01:59:28;102336.63;;;-4.12;82.25
16255;BME280;8235;52.198;9.904;2023-03-01T02:01:59;102333.09;;;-4.14;82.17
16255;BME280;8235;52.198;9.904;2023-03-01T02:04:28;102332.22;;;-4.15;82.24
16255;BME280;8235;52.198;9.904;2023-03-01T02:06:59;102324.38;;;-4.16;82.24
16255;BME280;8235;52.198;9.904;2023-03-01T02:09:27;102320.00;;;-4.17;82.32
16255;BME280;8235;52.198;9.904;2023-03-01T02:11:54;102322.63;;;-4.17;82.48
16255;BME280;8235;52.198;9.904;2023-03-01T02:14:21;102318.22;;;-4.20;82.69
16255;BME280;8235;52.198;9.904;2023-03-01T02:16:47;102310.38;;;-4.22;82.60
16255;BME280;8235;52.198;9.904;2023-03-01T02:19:23;102310.34;;;-4.23;82.64
16255;BME280;8235;52.198;9.904;2023-03-01T02:21:59;102315.47;;;-4.26;82.70
16255;BME280;8235;52.198;9.904;2023-03-01T02:24:32;102310.22;;;-4.28;82.74
16255;BME280;8235;52.198;9.904;2023-03-01T02:27:02;102303.25;;;-4.29;82.85
16255;BME280;8235;52.198;9.904;2023-03-01T02:29:30;102306.69;;;-4.31;82.86
16255;BME280;8235;52.198;9.904;2023-03-01T02:31:59;102306.63;;;-4.34;82.91
16255;BME280;8235;52.198;9.904;2023-03-01T02:34:27;102307.44;;;-4.35;83.01
16255;BME280;8235;52.198;9.904;2023-03-01T02:36:57;102299.56;;;-4.38;82.98
16255;BME280;8235;52.198;9.904;2023-03-01T02:39:26;102300.38;;;-4.41;82.76
16255;BME280;8235;52.198;9.904;2023-03-01T02:41:56;102298.63;;;-4.42;82.82
16255;BME280;8235;52.198;9.904;2023-03-01T02:44:23;102290.72;;;-4.45;82.96
16255;BME280;8235;52.198;9.904;2023-03-01T02:46:52;102290.69;;;-4.46;82.94
16255;BME280;8235;52.198;9.904;2023-03-01T02:49:22;102292.41;;;-4.48;83.22
16255;BME280;8235;52.198;9.904;2023-03-01T02:51:59;102285.44;;;-4.49;83.07
16255;BME280;8235;52.198;9.904;2023-03-01T02:54:30;102283.66;;;-4.52;83.03
16255;BME280;8235;52.198;9.904;2023-03-01T02:56:59;102292.28;;;-4.53;83.40
16255;BME280;8235;52.198;9.904;2023-03-01T02:59:29;102291.38;;;-4.55;83.14
16255;BME280;8235;52.198;9.904;2023-03-01T03:02:00;102281.72;;;-4.59;82.96
16255;BME280;8235;52.198;9.904;2023-03-01T03:04:26;102285.16;;;-4.60;83.14
16255;BME280;8235;52.198;9.904;2023-03-01T03:06:53;102272.97;;;-4.63;83.21
16255;BME280;8235;52.198;9.904;2023-03-01T03:09:19;102278.13;;;-4.64;83.24
16255;BME280;8235;52.198;9.904;2023-03-01T03:11:46;102266.84;;;-4.66;83.31
16255;BME280;8235;52.198;9.904;2023-03-01T03:14:14;102271.13;;;-4.68;83.41
16255;BME280;8235;52.198;9.904;2023-03-01T03:16:43;102263.28;;;-4.70;83.43
16255;BME280;8235;52.198;9.904;2023-03-01T03:19:11;102263.25;;;-4.71;83.74
16255;BME280;8235;52.198;9.904;2023-03-01T03:21:38;102257.13;;;-4.73;83.82
16255;BME280;8235;52.198;9.904;2023-03-01T03:24:05;102264.03;;;-4.74;83.69
16255;BME280;8235;52.198;9.904;2023-03-01T03:26:32;102255.28;;;-4.77;83.62
16255;BME280;8235;52.198;9.904;2023-03-01T03:28:59;102250.09;;;-4.77;83.79
16255;BME280;8235;52.198;9.904;2023-03-01T03:31:25;102263.00;;;-4.80;83.81
16255;BME280;8235;52.198;9.904;2023-03-01T03:33:52;102262.06;;;-4.82;83.95
16255;BME280;8235;52.198;9.904;2023-03-01T03:36:22;102256.88;;;-4.84;84.02
16255;BME280;8235;52.198;9.904;2023-03-01T03:38:49;102272.41;;;-4.85;84.19
16255;BME280;8235;52.198;9.904;2023-03-01T03:41:15;102256.78;;;-4.87;84.19
16255;BME280;8235;52.198;9.904;2023-03-01T03:43:43;102265.41;;;-4.88;84.10
16255;BME280;8235;52.198;9.904;2023-03-01T03:46:10;102263.66;;;-4.89;84.38
16255;BME280;8235;52.198;9.904;2023-03-01T03:48:39;102268.81;;;-4.91;84.24
16255;BME280;8235;52.198;9.904;2023-03-01T03:51:06;102261.84;;;-4.92;84.58
16255;BME280;8235;52.198;9.904;2023-03-01T03:53:34;102267.91;;;-4.93;84.55
16255;BME280;8235;52.198;9.904;2023-03-01T03:56:00;102267.84;;;-4.94;84.70
16255;BME280;8235;52.198;9.904;2023-03-01T03:58:27;102267.81;;;-4.96;84.83
16255;BME280;8235;52.198;9.904;2023-03-01T04:00:55;102261.69;;;-4.98;84.80
16255;BME280;8235;52.198;9.904;2023-03-01T04:03:24;102262.56;;;-4.97;84.93
16255;BME280;8235;52.198;9.904;2023-03-01T04:05:51;102262.53;;;-4.99;85.08
16255;BME280;8235;52.198;9.904;2023-03-01T04:08:19;102256.44;;;-4.99;85.24
16255;BME280;8235;52.198;9.904;2023-03-01T04:10:48;102255.56;;;-5.00;85.17
16255;BME280;8235;52.198;9.904;2023-03-01T04:13:17;102252.94;;;-5.01;85.39
16255;BME280;8235;52.198;9.904;2023-03-01T04:15:44;102251.22;;;-5.01;85.44
16255;BME280;8235;52.198;9.904;2023-03-01T04:18:12;102250.28;;;-5.04;85.37
16255;BME280;8235;52.198;9.904;2023-03-01T04:20:39;102258.97;;;-5.04;85.64
16255;BME280;8235;52.198;9.904;2023-03-01T04:23:07;102260.63;;;-5.06;85.62
16255;BME280;8235;52.198;9.904;2023-03-01T04:25:39;102259.75;;;-5.06;85.55
16255;BME280;8235;52.198;9.904;2023-03-01T04:28:08;102264.91;;;-5.08;85.70
16255;BME280;8235;52.198;9.904;2023-03-01T04:30:35;102271.81;;;-5.08;85.85
16255;BME280;8235;52.198;9.904;2023-03-01T04:33:03;102273.50;;;-5.10;85.66
16255;BME280;8235;52.198;9.904;2023-03-01T04:35:30;102270.00;;;-5.11;85.93
16255;BME280;8235;52.198;9.904;2023-03-01T04:37:57;102271.69;;;-5.13;86.00
16255;BME280;8235;52.198;9.904;2023-03-01T04:40:23;102271.66;;;-5.14;85.81
16255;BME280;8235;52.198;9.904;2023-03-01T04:42:50;102273.34;;;-5.15;85.81
16255;BME280;8235;52.198;9.904;2023-03-01T04:45:18;102275.03;;;-5.17;86.01
16255;BME280;8235;52.198;9.904;2023-03-01T04:47:46;102272.38;;;-5.18;86.28
16255;BME280;8235;52.198;9.904;2023-03-01T04:50:14;102259.41;;;-5.20;85.91
16255;BME280;8235;52.198;9.904;2023-03-01T04:52:41;102268.03;;;-5.21;86.47
16255;BME280;8235;52.198;9.904;2023-03-01T04:55:08;102261.91;;;-5.23;85.96
16255;BME280;8235;52.198;9.904;2023-03-01T04:57:35;102267.97;;;-5.22;86.20
16255;BME280;8235;52.198;9.904;2023-03-01T05:00:03;102256.66;;;-5.25;86.21
16255;BME280;8235;52.198;9.904;2023-03-01T05:02:47;102260.97;;;-5.25;86.42
16255;BME280;8235;52.198;9.904;2023-03-01T05:05:21;102260.00;;;-5.29;86.01
16255;BME280;8235;52.198;9.904;2023-03-01T05:07:54;102266.00;;;-5.31;86.17
16255;BME280;8235;52.198;9.904;2023-03-01T05:10:21;102263.31;;;-5.34;86.07
16255;BME280;8235;52.198;9.904;2023-03-01T05:12:48;102258.91;;;-5.37;86.11
16255;BME280;8235;52.198;9.904;2023-03-01T05:15:14;102254.53;;;-5.39;86.00
16255;BME280;8235;52.198;9.904;2023-03-01T05:17:41;102251.06;;;-5.40;86.20
16255;BME280;8235;52.198;9.904;2023-03-01T05:20:10;102255.38;;;-5.40;86.50
16255;BME280;8235;52.198;9.904;2023-03-01T05:22:37;102250.19;;;-5.40;86.44
16255;BME280;8235;52.198;9.904;2023-03-01T05:25:04;102243.25;;;-5.41;86.51
16255;BME280;8235;52.198;9.904;2023-03-01T05:27:30;102244.91;;;-5.43;86.68
16255;BME280;8235;52.198;9.904;2023-03-01T05:30:00;102250.09;;;-5.43;86.20
16255;BME280;8235;52.198;9.904;2023-03-01T05:32:39;102250.06;;;-5.45;86.53
16255;BME280;8235;52.198;9.904;2023-03-01T05:35:06;102246.56;;;-5.45;86.75
16255;BME280;8235;52.198;9.904;2023-03-01T05:37:34;102237.00;;;-5.48;86.95
16255;BME280;8235;52.198;9.904;2023-03-01T05:40:01;102248.22;;;-5.49;86.59
16255;BME280;8235;52.198;9.904;2023-03-01T05:42:28;102249.84;;;-5.52;86.66
16255;BME280;8235;52.198;9.904;2023-03-01T05:44:58;102245.47;;;-5.53;86.72
16255;BME280;8235;52.198;9.904;2023-03-01T05:47:24;102261.88;;;-5.54;86.68
16255;BME280;8235;52.198;9.904;2023-03-01T05:49:51;102249.78;;;-5.55;86.90
16255;BME280;8235;52.198;9.904;2023-03-01T05:52:17;102258.41;;;-5.56;86.67
16255;BME280;8235;52.198;9.904;2023-03-01T05:54:45;102256.63;;;-5.57;86.63
16255;BME280;8235;52.198;9.904;2023-03-01T05:57:12;102245.31;;;-5.60;86.91
16255;BME280;8235;52.198;9.904;2023-03-01T05:59:38;102247.03;;;-5.60;86.79
16255;BME280;8235;52.198;9.904;2023-03-01T06:02:05;102247.03;;;-5.60;86.87
16255;BME280;8235;52.198;9.904;2023-03-01T06:04:31;102249.59;;;-5.62;86.92
16255;BME280;8235;52.198;9.904;2023-03-01T06:06:58;102249.59;;;-5.62;86.85
16255;BME280;8235;52.198;9.904;2023-03-01T06:09:24;102254.78;;;-5.62;87.01
16255;BME280;8235;52.198;9.904;2023-03-01T06:11:52;102250.38;;;-5.64;86.86
16255;BME280;8235;52.198;9.904;2023-03-01T06:14:18;102256.34;;;-5.67;87.23
16255;BME280;8235;52.198;9.904;2023-03-01T06:16:46;102245.06;;;-5.69;87.27
16255;BME280;8235;52.198;9.904;2023-03-01T06:19:12;102248.47;;;-5.70;87.35
16255;BME280;8235;52.198;9.904;2023-03-01T06:21:39;102253.69;;;-5.70;87.39
16255;BME280;8235;52.198;9.904;2023-03-01T06:24:06;102245.09;;;-5.67;87.48
16255;BME280;8235;52.198;9.904;2023-03-01T06:26:33;102246.91;;;-5.65;87.75
16255;BME280;8235;52.198;9.904;2023-03-01T06:29:01;102241.75;;;-5.63;87.81
16255;BME280;8235;52.198;9.904;2023-03-01T06:31:27;102244.44;;;-5.60;88.22
16255;BME280;8235;52.198;9.904;2023-03-01T06:33:54;102251.41;;;-5.59;88.18
16255;BME280;8235;52.198;9.904;2023-03-01T06:36:20;102247.13;;;-5.57;88.23
16255;BME280;8235;52.198;9.904;2023-03-01T06:38:47;102248.91;;;-5.54;88.40
16255;BME280;8235;52.198;9.904;2023-03-01T06:41:13;102251.53;;;-5.53;88.46
16255;BME280;8235;52.198;9.904;2023-03-01T06:43:40;102255.94;;;-5.50;88.45
16255;BME280;8235;52.198;9.904;2023-03-01T06:46:07;102249.91;;;-5.49;88.37
16255;BME280;8235;52.198;9.904;2023-03-01T06:48:34;102261.22;;;-5.47;88.69
16255;BME280;8235;52.198;9.904;2023-03-01T06:51:01;102256.97;;;-5.45;88.61
16255;BME280;8235;52.198;9.904;2023-03-01T06:53:27;102259.56;;;-5.45;88.31
16255;BME280;8235;52.198;9.904;2023-03-01T06:55:54;102260.41;;;-5.46;88.66
16255;BME280;8235;52.198;9.904;2023-03-01T06:58:21;102260.41;;;-5.46;88.32
16255;BME280;8235;52.198;9.904;2023-03-01T07:00:48;102257.00;;;-5.44;88.93
16255;BME280;8235;52.198;9.904;2023-03-01T07:03:15;102254.47;;;-5.42;88.40
16255;BME280;8235;52.198;9.904;2023-03-01T07:05:42;102251.94;;;-5.39;88.70
16255;BME280;8235;52.198;9.904;2023-03-01T07:08:09;102250.25;;;-5.37;88.98
16255;BME280;8235;52.198;9.904;2023-03-01T07:10:36;102249.41;;;-5.38;88.92
16255;BME280;8235;52.198;9.904;2023-03-01T07:13:02;102251.13;;;-5.37;88.75
16255;BME280;8235;52.198;9.904;2023-03-01T07:15:31;102245.13;;;-5.34;89.07
16255;BME280;8235;52.198;9.904;2023-03-01T07:17:58;102244.38;;;-5.30;89.12
16255;BME280;8235;52.198;9.904;2023-03-01T07:20:26;102246.25;;;-5.26;89.58
16255;BME280;8235;52.198;9.904;2023-03-01T07:22:53;102241.19;;;-5.21;89.71
16255;BME280;8235;52.198;9.904;2023-03-01T07:25:20;102243.88;;;-5.17;90.11
16255;BME280;8235;52.198;9.904;2023-03-01T07:27:49;102234.47;;;-5.12;89.99
16255;BME280;8235;52.198;9.904;2023-03-01T07:30:16;102229.41;;;-5.07;90.42
16255;BME280;8235;52.198;9.904;2023-03-01T07:32:43;102227.81;;;-5.02;90.41
16255;BME280;8235;52.198;9.904;2023-03-01T07:35:10;102226.19;;;-4.97;90.83
16255;BME280;8235;52.198;9.904;2023-03-01T07:37:38;102231.56;;;-4.91;91.44
16255;BME280;8235;52.198;9.904;2023-03-01T07:40:06;102223.91;;;-4.85;91.58
16255;BME280;8235;52.198;9.904;2023-03-01T07:42:32;102224.09;;;-4.77;92.11
16255;BME280;8235;52.198;9.904;2023-03-01T07:44:59;102220.81;;;-4.70;92.26
16255;BME280;8235;52.198;9.904;2023-03-01T07:47:25;102217.53;;;-4.62;92.72
16255;BME280;8235;52.198;9.904;2023-03-01T07:49:52;102219.53;;;-4.51;93.53
16255;BME280;8235;52.198;9.904;2023-03-01T07:52:18;102216.31;;;-4.40;93.67
16255;BME280;8235;52.198;9.904;2023-03-01T07:54:46;102214.81;;;-4.30;94.25
16255;BME280;8235;52.198;9.904;2023-03-01T07:57:13;102225.44;;;-4.20;94.37
16255;BME280;8235;52.198;9.904;2023-03-01T07:59:39;102218.72;;;-4.08;94.75
16255;BME280;8235;52.198;9.904;2023-03-01T08:02:06;102215.53;;;-3.97;95.31
16255;BME280;8235;52.198;9.904;2023-03-01T08:04:32;102227.91;;;-3.85;95.98
16255;BME280;8235;52.198;9.904;2023-03-01T08:06:59;102229.06;;;-3.71;96.38
16255;BME280;8235;52.198;9.904;2023-03-01T08:09:25;102226.72;;;-3.59;97.08
16255;BME280;8235;52.198;9.904;2023-03-01T08:11:53;102212.22;;;-3.44;97.39
16255;BME280;8235;52.198;9.904;2023-03-01T08:14:20;102218.53;;;-3.32;97.48
16255;BME280;8235;52.198;9.904;2023-03-01T08:16:49;102217.03;;;-3.19;97.90
16255;BME280;8235;52.198;9.904;2023-03-01T08:19:15;102220.75;;;-3.06;98.11
16255;BME280;8235;52.198;9.904;2023-03-01T08:21:41;102220.09;;;-2.93;98.43
16255;BME280;8235;52.198;9.904;2023-03-01T08:24:08;102218.56;;;-2.81;98.21
16255;BME280;8235;52.198;9.904;2023-03-01T08:26:35;102225.69;;;-2.70;98.56
16255;BME280;8235;52.198;9.904;2023-03-01T08:29:03;102219.75;;;-2.60;98.29
16255;BME280;8235;52.198;9.904;2023-03-01T08:31:32;102215.53;;;-2.52;98.01
16255;BME280;8235;52.198;9.904;2023-03-01T10:14:23;102170.19;;;3.23;69.28
16255;BME280;8235;52.198;9.904;2023-03-01T10:16:55;102170.13;;;3.31;68.23
16255;BME280;8235;52.198;9.904;2023-03-01T10:19:27;102178.84;;;3.37;67.67
16255;BME280;8235;52.198;9.904;2023-03-01T10:21:57;102162.09;;;3.41;67.49
16255;BME280;8235;52.198;9.904;2023-03-01T10:24:28;102170.84;;;3.45;66.57
16255;BME280;8235;52.198;9.904;2023-03-01T10:26:58;102170.84;;;3.46;66.27
16255;BME280;8235;52.198;9.904;2023-03-01T10:29:31;102165.59;;;3.43;65.54
16255;BME280;8235;52.198;9.904;2023-03-01T10:32:00;102181.44;;;3.40;64.84
16255;BME280;8235;52.198;9.904;2023-03-01T10:34:33;102168.31;;;3.39;64.70
16255;BME280;8235;52.198;9.904;2023-03-01T10:37:10;102173.53;;;3.40;64.19
16255;BME280;8235;52.198;9.904;2023-03-01T10:39:36;102161.22;;;3.41;65.13
16255;BME280;8235;52.198;9.904;2023-03-01T10:42:04;102164.72;;;3.44;65.15
16255;BME280;8235;52.198;9.904;2023-03-01T10:44:41;102174.38;;;3.45;63.80
16255;BME280;8235;52.198;9.904;2023-03-01T10:47:18;102166.47;;;3.45;62.98
16255;BME280;8235;52.198;9.904;2023-03-01T10:49:57;102162.06;;;3.47;62.96
16255;BME280;8235;52.198;9.904;2023-03-01T10:52:30;102163.81;;;3.48;63.25
16255;BME280;8235;52.198;9.904;2023-03-01T10:54:58;102162.91;;;3.51;62.42
16255;BME280;8235;52.198;9.904;2023-03-01T10:57:33;102161.97;;;3.57;61.92
16255;BME280;8235;52.198;9.904;2023-03-01T11:00:18;102154.00;;;3.61;61.46
16255;BME280;8235;52.198;9.904;2023-03-01T11:02:48;102155.72;;;3.67;61.69
16255;BME280;8235;52.198;9.904;2023-03-01T11:05:20;102155.63;;;3.74;60.62
16255;BME280;8235;52.198;9.904;2023-03-01T11:07:50;102157.31;;;3.80;60.93
16255;BME280;8235;52.198;9.904;2023-03-01T11:10:18;102145.84;;;3.84;60.21
16255;BME280;8235;52.198;9.904;2023-03-01T11:12:45;102143.19;;;3.87;60.12
16255;BME280;8235;52.198;9.904;2023-03-01T11:15:22;102138.75;;;3.91;59.66
16255;BME280;8235;52.198;9.904;2023-03-01T11:17:50;102136.03;;;3.97;59.35
16255;BME280;8235;52.198;9.904;2023-03-01T11:20:24;102137.75;;;3.99;59.42
16255;BME280;8235;52.198;9.904;2023-03-01T11:22:53;102140.34;;;4.04;59.40
16255;BME280;8235;52.198;9.904;2023-03-01T11:25:24;102143.78;;;4.10;58.56
16255;BME280;8235;52.198;9.904;2023-03-01T11:27:52;102134.91;;;4.14;58.22
16255;BME280;8235;52.198;9.904;2023-03-01T11:30:24;102126.06;;;4.20;58.61
16255;BME280;8235;52.198;9.904;2023-03-01T11:33:01;102130.38;;;4.26;58.24
16255;BME280;8235;52.198;9.904;2023-03-01T11:35:31;102128.53;;;4.31;58.70
16255;BME280;8235;52.198;9.904;2023-03-01T11:38:12;102126.72;;;4.36;58.09
16255;BME280;8235;52.198;9.904;2023-03-01T11:40:45;102128.47;;;4.37;57.36
16255;BME280;8235;52.198;9.904;2023-03-01T11:43:20;102132.88;;;4.35;56.73
16255;BME280;8235;52.198;9.904;2023-03-01T11:46:31;102128.41;;;4.40;57.14
16255;BME280;8235;52.198;9.904;2023-03-01T11:49:14;102121.34;;;4.43;57.03
16255;BME280;8235;52.198;9.904;2023-03-01T11:51:51;102122.19;;;4.47;56.95
16255;BME280;8235;52.198;9.904;2023-03-01T11:54:29;102123.88;;;4.49;56.45
16255;BME280;8235;52.198;9.904;2023-03-01T11:57:01;102116.81;;;4.50;55.85
16255;BME280;8235;52.198;9.904;2023-03-01T11:59:43;102115.94;;;4.51;55.88
16255;BME280;8235;52.198;9.904;2023-03-01T12:05:25;102110.56;;;4.57;56.14
16255;BME280;8235;52.198;9.904;2023-03-01T12:08:06;102108.78;;;4.59;56.08
16255;BME280;8235;52.198;9.904;2023-03-01T12:10:42;102107.00;;;4.61;55.37
16255;BME280;8235;52.198;9.904;2023-03-01T12:16:21;102099.97;;;4.62;54.70
16255;BME280;8235;52.198;9.904;2023-03-01T12:22:09;102088.50;;;4.63;55.11
16255;BME280;8235;52.198;9.904;2023-03-01T12:24:55;102092.03;;;4.63;54.60
16255;BME280;8235;52.198;9.904;2023-03-01T12:27:48;102076.19;;;4.63;54.85
16255;BME280;8235;52.198;9.904;2023-03-01T12:30:27;102075.28;;;4.66;54.74
16255;BME280;8235;52.198;9.904;2023-03-01T12:33:07;102074.34;;;4.67;54.10
16255;BME280;8235;52.198;9.904;2023-03-01T12:35:52;102063.72;;;4.71;54.67
16255;BME280;8235;52.198;9.904;2023-03-01T12:38:32;102060.19;;;4.72;53.77
16255;BME280;8235;52.198;9.904;2023-03-01T12:44:04;102054.81;;;4.78;53.90
16255;BME280;8235;52.198;9.904;2023-03-01T12:46:44;102046.91;;;4.78;53.49
16255;BME280;8235;52.198;9.904;2023-03-01T12:49:21;102046.00;;;4.79;53.50
16255;BME280;8235;52.198;9.904;2023-03-01T12:51:54;102036.28;;;4.81;53.86
16255;BME280;8235;52.198;9.904;2023-03-01T12:54:27;102043.22;;;4.87;53.96
16255;BME280;8235;52.198;9.904;2023-03-01T12:56:55;102023.81;;;4.89;54.38
16255;BME280;8235;52.198;9.904;2023-03-01T12:59:29;102029.88;;;4.95;54.29
16255;BME280;8235;52.198;9.904;2023-03-01T13:02:03;102026.31;;;4.99;54.28
16255;BME280;8235;52.198;9.904;2023-03-01T13:04:47;102017.41;;;5.03;53.38
16255;BME280;8235;52.198;9.904;2023-03-01T13:07:29;102010.38;;;5.02;53.05
16255;BME280;8235;52.198;9.904;2023-03-01T13:10:10;102001.56;;;5.03;53.41
16255;BME280;8235;52.198;9.904;2023-03-01T13:12:45;102009.44;;;5.04;52.96
16255;BME280;8235;52.198;9.904;2023-03-01T13:15:27;102005.03;;;5.05;52.92
16255;BME280;8235;52.198;9.904;2023-03-01T13:17:55;102005.88;;;5.07;52.54
16255;BME280;8235;52.198;9.904;2023-03-01T13:20:25;101997.06;;;5.08;52.38
16255;BME280;8235;52.198;9.904;2023-03-01T13:23:02;102002.31;;;5.09;52.26
16255;BME280;8235;52.198;9.904;2023-03-01T13:25:31;102001.44;;;5.09;51.63
16255;BME280;8235;52.198;9.904;2023-03-01T13:31:02;101993.41;;;5.15;51.97
16255;BME280;8235;52.198;9.904;2023-03-01T13:33:43;101988.13;;;5.15;51.69
16255;BME280;8235;52.198;9.904;2023-03-01T13:36:11;101988.09;;;5.18;51.65
16255;BME280;8235;52.198;9.904;2023-03-01T13:39:00;101986.16;;;5.24;52.13
16255;BME280;8235;52.198;9.904;2023-03-01T13:41:50;101980.81;;;5.29;52.07
16255;BME280;8235;52.198;9.904;2023-03-01T13:44:24;101979.00;;;5.31;51.68
16255;BME280;8235;52.198;9.904;2023-03-01T13:46:53;101977.22;;;5.33;51.79
16255;BME280;8235;52.198;9.904;2023-03-01T13:49:25;101974.50;;;5.36;51.88
16255;BME280;8235;52.198;9.904;2023-03-01T13:51:53;101973.59;;;5.37;51.40
16255;BME280;8235;52.198;9.904;2023-03-01T13:54:32;101972.66;;;5.40;51.45
16255;BME280;8235;52.198;9.904;2023-03-01T13:57:01;101965.53;;;5.43;51.39
16255;BME280;8235;52.198;9.904;2023-03-01T13:59:28;101960.22;;;5.45;51.04
16255;BME280;8235;52.198;9.904;2023-03-01T14:01:57;101961.94;;;5.47;51.25
16255;BME280;8235;52.198;9.904;2023-03-01T14:04:26;101964.50;;;5.50;51.30
16255;BME280;8235;52.198;9.904;2023-03-01T14:07:09;101959.13;;;5.55;51.25
16255;BME280;8235;52.198;9.904;2023-03-01T14:09:39;101959.91;;;5.58;50.80
16255;BME280;8235;52.198;9.904;2023-03-01T14:12:20;101958.13;;;5.59;50.71
16255;BME280;8235;52.198;9.904;2023-03-01T14:14:56;101953.72;;;5.59;50.43
16255;BME280;8235;52.198;9.904;2023-03-01T14:17:40;101948.41;;;5.61;50.45
16255;BME280;8235;52.198;9.904;2023-03-01T14:20:12;101945.72;;;5.63;50.28
16255;BME280;8235;52.198;9.904;2023-03-01T14:22:41;101942.16;;;5.65;50.43
16255;BME280;8235;52.198;9.904;2023-03-01T14:25:21;101949.16;;;5.68;50.52
16255;BME280;8235;52.198;9.904;2023-03-01T14:27:56;101939.44;;;5.68;49.91
16255;BME280;8235;52.198;9.904;2023-03-01T14:30:25;101937.66;;;5.70;49.80
16255;BME280;8235;52.198;9.904;2023-03-01T14:32:54;101938.50;;;5.71;49.99
16255;BME280;8235;52.198;9.904;2023-03-01T14:35:22;101948.13;;;5.73;50.10
16255;BME280;8235;52.198;9.904;2023-03-01T14:37:49;101942.81;;;5.75;50.02
16255;BME280;8235;52.198;9.904;2023-03-01T14:40:27;101942.81;;;5.75;50.26
16255;BME280;8235;52.198;9.904;2023-03-01T14:42:56;101933.09;;;5.75;50.00
16255;BME280;8235;52.198;9.904;2023-03-01T14:45:26;101932.19;;;5.76;49.99
16255;BME280;8235;52.198;9.904;2023-03-01T14:47:53;101935.75;;;5.75;49.72
16255;BME280;8235;52.198;9.904;2023-03-01T14:50:26;101932.16;;;5.78;49.65
16255;BME280;8235;52.198;9.904;2023-03-01T14:52:55;101925.09;;;5.78;50.05
16255;BME280;8235;52.198;9.904;2023-03-01T14:55:27;101931.25;;;5.79;50.18
16255;BME280;8235;52.198;9.904;2023-03-01T14:57:56;101923.31;;;5.80;50.25
16255;BME280;8235;52.198;9.904;2023-03-01T15:00:26;101925.91;;;5.82;50.07
16255;BME280;8235;52.198;9.904;2023-03-01T15:02:54;101918.88;;;5.81;49.76
16255;BME280;8235;52.198;9.904;2023-03-01T15:05:25;101918.03;;;5.79;49.44
16255;BME280;8235;52.198;9.904;2023-03-01T15:07:52;101921.59;;;5.78;49.51
16255;BME280;8235;52.198;9.904;2023-03-01T15:10:23;101915.47;;;5.76;49.13
16255;BME280;8235;52.198;9.904;2023-03-01T15:12:50;101913.72;;;5.75;49.34
16255;BME280;8235;52.198;9.904;2023-03-01T15:15:37;101907.56;;;5.74;49.22